createdAt,value
2023-04-07T05:08:07.487Z,8.77
2023-04-07T05:11:10.020Z,8.27
2023-04-07T05:14:12.566Z,8.50
2023-04-07T05:17:15.013Z,8.25
2023-04-07T05:20:17.857Z,8.55
2023-04-07T05:23:21.712Z,9.00
2023-04-07T05:26:24.197Z,8.23
2023-04-07T05:29:26.771Z,8.57
2023-04-07T05:32:29.947Z,8.57
2023-04-07T05:35:32.493Z,8.02
2023-04-07T05:38:36.383Z,7.97
2023-04-07T05:41:38.861Z,8.52
2023-04-07T05:44:41.736Z,8.73
2023-04-07T05:47:44.325Z,9.02
2023-04-07T05:50:46.857Z,9.02
2023-04-07T05:53:50.999Z,8.05
2023-04-07T05:56:53.590Z,7.97
2023-04-07T05:59:56.270Z,8.02
2023-04-07T06:02:58.832Z,7.10
2023-04-07T06:06:01.542Z,6.82
2023-04-07T06:09:06.920Z,6.97
2023-04-07T06:12:12.277Z,7.03
2023-04-07T06:15:14.793Z,6.55
2023-04-07T06:18:17.272Z,7.05
2023-04-07T06:21:19.753Z,7.30
2023-04-07T06:24:25.226Z,7.22
2023-04-07T06:27:27.828Z,7.22
2023-04-07T06:30:30.556Z,7.25
2023-04-07T06:33:33.136Z,6.88
2023-04-07T06:36:35.882Z,7.75
2023-04-07T06:39:39.811Z,6.82
2023-04-07T06:42:42.281Z,7.95
2023-04-07T06:45:44.904Z,7.95
2023-04-07T06:48:47.614Z,8.27
2023-04-07T06:51:50.077Z,6.80
2023-04-07T06:54:53.881Z,7.28
2023-04-07T06:57:56.438Z,7.03
2023-04-07T07:00:58.975Z,7.20
2023-04-07T07:04:01.787Z,5.85
2023-04-07T07:07:04.350Z,7.05
2023-04-07T07:10:10.437Z,6.60
2023-04-07T07:13:12.937Z,6.53
2023-04-07T07:16:15.669Z,6.32
2023-04-07T07:19:18.249Z,6.78
2023-04-07T07:22:20.762Z,6.40
2023-04-07T07:25:26.813Z,6.45
2023-04-07T07:28:29.866Z,6.88
2023-04-07T07:31:32.474Z,6.00
2023-04-07T07:34:35.069Z,6.38
2023-04-07T07:37:37.583Z,7.35
2023-04-07T07:40:41.482Z,5.78
2023-04-07T07:43:44.018Z,5.75
2023-04-07T07:46:46.792Z,6.57
2023-04-07T07:49:49.598Z,6.65
2023-04-07T07:52:52.087Z,6.53
2023-04-07T07:55:56.875Z,5.78
2023-04-07T07:58:59.347Z,5.53
2023-04-07T08:02:02.003Z,5.65
2023-04-07T08:05:04.854Z,6.90
2023-04-07T08:08:07.417Z,6.35
2023-04-07T08:11:11.400Z,6.80
2023-04-07T08:14:13.973Z,6.78
2023-04-07T08:17:16.859Z,6.07
2023-04-07T08:20:19.630Z,6.82
2023-04-07T08:23:22.223Z,6.30
2023-04-07T08:26:25.994Z,6.35
2023-04-07T08:29:29.971Z,7.97
2023-04-07T08:32:40.033Z,6.55
2023-04-07T08:35:42.554Z,6.40
2023-04-07T08:38:45.142Z,8.05
2023-04-07T08:41:51.280Z,7.68
2023-04-07T08:44:55.153Z,7.88
2023-04-07T08:48:00.488Z,8.93
2023-04-07T08:51:06.754Z,8.63
2023-04-07T08:54:11.899Z,10.10
2023-04-07T08:57:18.010Z,10.15
2023-04-07T09:00:20.992Z,9.02
2023-04-07T09:03:24.758Z,8.30
2023-04-07T09:06:27.967Z,7.85
2023-04-07T09:09:30.847Z,7.05
2023-04-07T09:12:35.414Z,7.55
2023-04-07T09:15:38.905Z,7.10
2023-04-07T09:18:42.693Z,6.72
2023-04-07T09:21:49.742Z,6.00
2023-04-07T09:24:52.206Z,6.28
2023-04-07T09:27:57.489Z,5.80
2023-04-07T09:30:59.941Z,5.78
2023-04-07T09:34:02.542Z,4.82
2023-04-07T09:37:06.619Z,5.53
2023-04-07T09:40:10.140Z,5.28
2023-04-07T09:43:18.678Z,6.60
2023-04-07T09:46:21.199Z,6.85
2023-04-07T09:49:25.327Z,6.88
2023-04-07T09:52:51.731Z,6.75
2023-04-07T09:55:54.652Z,7.20
2023-04-07T09:58:58.781Z,7.45
2023-04-07T10:02:01.905Z,7.63
2023-04-07T10:05:05.434Z,6.80
2023-04-07T10:08:08.024Z,6.68
2023-04-07T10:11:11.488Z,6.90
2023-04-07T10:14:16.810Z,6.95
2023-04-07T10:17:20.724Z,6.75
2023-04-07T10:20:24.431Z,6.70
2023-04-07T10:23:38.474Z,5.78
2023-04-07T10:26:41.876Z,6.80
2023-04-07T10:29:49.506Z,5.82
2023-04-07T10:32:54.302Z,6.22
2023-04-07T10:36:05.043Z,7.07
2023-04-07T10:39:24.140Z,6.80
2023-04-07T10:42:46.379Z,7.38
2023-04-07T10:45:59.385Z,7.05
2023-04-07T10:49:09.820Z,7.20
2023-04-07T10:52:25.317Z,6.63
2023-04-07T10:55:33.550Z,6.63
2023-04-07T10:58:37.376Z,8.02
2023-04-07T11:01:41.297Z,6.38
2023-04-07T11:04:46.063Z,7.50
2023-04-07T11:07:55.291Z,6.75
2023-04-07T11:10:57.839Z,7.18
2023-04-07T11:14:00.518Z,5.85
2023-04-07T11:17:04.879Z,5.60
2023-04-07T11:20:08.930Z,6.53
2023-04-07T11:23:12.193Z,6.38
2023-04-07T11:26:16.362Z,5.63
2023-04-07T11:29:29.247Z,6.80
2023-04-07T11:32:33.154Z,6.82
2023-04-07T11:35:36.740Z,6.55
2023-04-07T11:38:39.891Z,6.15
2023-04-07T11:41:47.934Z,5.88
2023-04-07T11:44:50.554Z,6.03
2023-04-07T11:47:54.343Z,5.23
2023-04-07T11:50:57.037Z,5.45
2023-04-07T11:53:59.523Z,5.18
2023-04-07T11:57:02.048Z,5.53
2023-04-07T12:00:08.066Z,5.28
2023-04-07T12:03:14.705Z,5.47
2023-04-07T12:06:29.081Z,4.28
2023-04-07T12:09:35.921Z,4.05
2023-04-07T12:12:38.413Z,5.15
2023-04-07T12:15:41.066Z,4.18
2023-04-07T12:18:44.883Z,5.35
2023-04-07T12:21:47.668Z,4.68
2023-04-07T12:24:50.325Z,4.40
2023-04-07T12:27:52.824Z,4.15
2023-04-07T12:30:55.444Z,3.83
2023-04-07T12:33:59.613Z,4.18
2023-04-07T12:37:02.064Z,3.88
2023-04-07T12:40:05.572Z,3.60
2023-04-07T12:43:08.386Z,4.22
2023-04-07T12:46:10.912Z,4.53
2023-04-07T12:49:14.712Z,3.90
2023-04-07T12:52:17.160Z,3.88
2023-04-07T12:55:19.678Z,4.32
2023-04-07T12:58:22.131Z,3.88
2023-04-07T13:01:24.632Z,3.85
2023-04-07T13:04:30.730Z,3.40
2023-04-07T13:07:35.058Z,3.42
2023-04-07T13:10:37.648Z,3.50
2023-04-07T13:13:40.097Z,3.47
2023-04-07T13:16:42.671Z,2.88
2023-04-07T13:19:47.542Z,3.65
2023-04-07T13:23:02.778Z,4.15
2023-04-07T13:26:08.327Z,3.60
2023-04-07T13:29:10.856Z,3.33
2023-04-07T13:32:14.873Z,3.30
2023-04-07T13:35:18.960Z,3.63
2023-04-07T13:38:21.414Z,3.08
2023-04-07T13:41:24.023Z,3.72
2023-04-07T13:44:27.281Z,3.53
2023-04-07T13:47:33.979Z,4.07
2023-04-07T13:50:39.260Z,3.85
2023-04-07T13:53:41.724Z,4.07
2023-04-07T13:56:44.162Z,4.18
2023-04-07T13:59:46.667Z,3.70
2023-04-07T14:02:49.586Z,4.03
2023-04-07T14:05:53.440Z,3.72
2023-04-07T14:08:55.923Z,3.83
2023-04-07T14:11:59.436Z,3.85
2023-04-07T14:15:01.894Z,3.55
2023-04-07T14:18:04.479Z,3.42
2023-04-07T14:21:08.319Z,3.90
2023-04-07T14:24:10.878Z,2.95
2023-04-07T14:27:14.146Z,3.72
2023-04-07T14:30:16.654Z,3.75
2023-04-07T14:33:19.178Z,3.72
2023-04-07T14:36:22.967Z,2.85
2023-04-07T14:39:26.052Z,3.00
2023-04-07T14:42:29.731Z,3.20
2023-04-07T14:45:32.770Z,3.42
2023-04-07T14:48:35.284Z,4.60
2023-04-07T14:51:39.459Z,4.55
2023-04-07T14:54:41.988Z,4.53
2023-04-07T14:57:44.599Z,3.40
2023-04-07T15:05:29.176Z,4.07
2023-04-07T15:08:31.764Z,4.03
2023-04-07T15:11:34.345Z,3.72
2023-04-07T15:14:36.875Z,2.80
2023-04-07T15:17:44.395Z,3.03
2023-04-07T15:20:48.633Z,3.25
2023-04-07T15:23:51.476Z,4.25
2023-04-07T15:26:54.173Z,2.80
2023-04-07T15:29:56.910Z,3.20
